Time;durP1;ratioP1;P1;durP2;ratioP2;P2;SDS_P1;SDS_P2;PMS_P1;PMS_P2;Temp;Humidity;BMP_temperature;BMP_pressure;BME280_temperature;BME280_humidity;BME280_pressure;Samples;Min_cycle;Max_cycle;Signal;HPM_P1;HPM_P2
2021/11/20 00:01:47;;;;;;;41.53;21.10;;;4.30;99.90;;;;;;4126051;28;20268;-62
2021/11/20 00:03:48;;;;;;;39.37;21.47;;;4.30;99.90;;;;;;4126282;28;20728;-63
2021/11/20 00:05:52;;;;;;;47.10;21.67;;;4.30;99.90;;;;;;4125620;28;20276;-67
2021/11/20 00:07:53;;;;;;;36.53;20.40;;;4.30;99.90;;;;;;4127117;28;20346;-63
2021/11/20 00:09:54;;;;;;;43.00;21.53;;;4.30;99.90;;;;;;4125850;28;20756;-63
2021/11/20 00:12:02;;;;;;;40.20;21.50;;;4.30;99.90;;;;;;4127306;28;20272;-63
2021/11/20 00:14:04;;;;;;;41.77;21.60;;;4.30;99.90;;;;;;4114224;28;20277;-62
2021/11/20 00:16:07;;;;;;;40.93;21.93;;;4.30;99.90;;;;;;4110795;28;20304;-66
2021/11/20 00:18:09;;;;;;;44.50;21.77;;;4.20;99.90;;;;;;4109568;28;20323;-62
2021/11/20 00:20:13;;;;;;;47.57;23.37;;;4.20;99.90;;;;;;4112832;28;20343;-63
2021/11/20 00:22:31;;;;;;;49.67;22.33;;;4.20;99.90;;;;;;4126082;28;20276;-62
2021/11/20 00:24:39;;;;;;;43.30;21.17;;;4.20;99.90;;;;;;4126594;28;20276;-66
2021/11/20 00:26:41;;;;;;;45.13;22.40;;;4.20;99.90;;;;;;4126077;28;20272;-64
2021/11/20 00:31:05;;;;;;;46.67;23.40;;;4.30;99.90;;;;;;4125673;28;20326;-63
2021/11/20 00:33:10;;;;;;;50.70;22.87;;;4.30;99.90;;;;;;4126873;28;20272;-61
2021/11/20 00:35:14;;;;;;;45.27;22.40;;;4.30;99.90;;;;;;4125104;28;20338;-65
2021/11/20 00:37:16;;;;;;;47.47;24.20;;;4.30;99.90;;;;;;4125801;28;20271;-67
2021/11/20 00:39:28;;;;;;;47.33;22.77;;;4.20;99.90;;;;;;4125552;28;20280;-64
2021/11/20 00:41:30;;;;;;;45.70;22.50;;;4.30;99.90;;;;;;4125472;28;20331;-66
2021/11/20 00:43:31;;;;;;;49.13;22.10;;;4.30;99.90;;;;;;4126136;28;20260;-65
2021/11/20 00:45:33;;;;;;;44.03;21.77;;;4.30;99.90;;;;;;4125324;28;20323;-65
2021/11/20 00:47:34;;;;;;;45.13;22.57;;;4.30;99.90;;;;;;4125889;28;20268;-62
2021/11/20 00:49:36;;;;;;;42.40;20.47;;;4.30;99.90;;;;;;4124811;28;20836;-62
2021/11/20 00:51:37;;;;;;;45.43;22.73;;;4.30;99.90;;;;;;4125962;28;20672;-61
2021/11/20 00:53:38;;;;;;;44.77;22.43;;;4.30;99.90;;;;;;4122746;28;20268;-62
2021/11/20 00:55:40;;;;;;;50.63;23.50;;;4.40;99.90;;;;;;4126091;28;20350;-61
2021/11/20 00:57:42;;;;;;;42.20;22.77;;;4.30;99.90;;;;;;4125027;28;20268;-60
2021/11/20 00:59:43;;;;;;;49.40;23.60;;;4.30;99.90;;;;;;4125854;28;20272;-65
2021/11/20 01:01:49;;;;;;;46.43;23.03;;;4.30;99.90;;;;;;4124513;28;20660;-62
2021/11/20 01:03:51;;;;;;;46.93;23.67;;;4.30;99.90;;;;;;4126170;28;20271;-63
2021/11/20 01:05:53;;;;;;;48.30;22.40;;;4.40;99.90;;;;;;4124807;28;20677;-62
2021/11/20 01:07:54;;;;;;;49.43;22.57;;;4.30;99.90;;;;;;4125761;28;20283;-62
2021/11/20 01:09:56;;;;;;;47.43;23.87;;;4.30;99.90;;;;;;4125659;28;20272;-61
2021/11/20 01:12:16;;;;;;;45.97;22.50;;;4.30;99.90;;;;;;4125185;28;20327;-60
2021/11/20 01:14:19;;;;;;;52.97;22.90;;;4.30;99.90;;;;;;4124745;28;20268;-61
2021/11/20 01:16:23;;;;;;;43.70;21.73;;;4.30;99.90;;;;;;4125086;28;20046;-61
2021/11/20 01:18:25;;;;;;;45.83;21.77;;;4.30;99.90;;;;;;4125119;28;20280;-62
2021/11/20 01:20:27;;;;;;;47.53;22.37;;;4.30;99.90;;;;;;4125558;28;20662;-66
2021/11/20 01:22:28;;;;;;;43.03;23.10;;;4.20;99.90;;;;;;4124952;28;20802;-62
2021/11/20 01:24:30;;;;;;;49.00;24.70;;;4.30;99.90;;;;;;4124631;28;20268;-62
2021/11/20 01:26:31;;;;;;;44.07;23.73;;;4.30;99.90;;;;;;4125178;28;20284;-65
2021/11/20 01:28:36;;;;;;;43.10;22.10;;;4.30;99.90;;;;;;4124059;28;20272;-62
2021/11/20 01:30:38;;;;;;;45.67;23.57;;;4.30;99.90;;;;;;4125639;28;20688;-63
2021/11/20 01:32:39;;;;;;;45.03;24.67;;;4.40;99.90;;;;;;4124175;28;20342;-66
2021/11/20 01:34:41;;;;;;;44.07;23.47;;;4.40;99.90;;;;;;4125592;28;20260;-66
2021/11/20 01:36:43;;;;;;;42.43;22.67;;;4.40;99.90;;;;;;4124137;28;20296;-65
2021/11/20 01:38:46;;;;;;;47.13;24.73;;;4.40;99.90;;;;;;4125514;28;20272;-61
2021/11/20 01:40:48;;;;;;;48.00;24.80;;;4.40;99.90;;;;;;4124339;28;20622;-63
2021/11/20 01:42:50;;;;;;;42.17;23.00;;;4.40;99.90;;;;;;4125533;28;20276;-61
2021/11/20 01:44:55;;;;;;;44.13;23.57;;;4.40;99.90;;;;;;4124344;28;20339;-64
2021/11/20 01:47:01;;;;;;;49.53;25.77;;;4.30;99.90;;;;;;4125248;28;20322;-65
2021/11/20 01:49:25;;;;;;;45.17;24.37;;;4.40;99.90;;;;;;4124358;28;20264;-63
2021/11/20 01:51:37;;;;;;;45.93;24.20;;;4.40;99.90;;;;;;4125484;28;20272;-62
2021/11/20 01:53:44;;;;;;;50.03;25.67;;;4.40;99.90;;;;;;4123697;28;20280;-62
2021/11/20 01:56:13;;;;;;;47.60;24.67;;;4.40;99.90;;;;;;4123801;28;20279;-61
2021/11/20 01:58:32;;;;;;;45.40;23.00;;;4.40;99.90;;;;;;4120900;28;20288;-63
2021/11/20 02:00:42;;;;;;;50.30;24.70;;;4.40;99.90;;;;;;4125243;28;20664;-63
2021/11/20 02:02:58;;;;;;;46.55;25.30;;;4.30;99.90;;;;;;4123953;28;20337;-61
2021/11/20 02:05:13;;;;;;;50.97;24.13;;;4.30;99.90;;;;;;4125249;28;20096;-61
2021/11/20 02:07:55;;;;;;;58.23;25.80;;;4.30;99.90;;;;;;4123563;28;20815;-63
2021/11/20 02:10:19;;;;;;;51.40;25.17;;;4.30;99.90;;;;;;4112184;28;20334;-62
2021/11/20 02:12:27;;;;;;;59.70;29.53;;;4.30;99.90;;;;;;4123714;28;20672;-62
2021/11/20 02:14:29;;;;;;;100.50;40.07;;;4.30;99.90;;;;;;4124794;28;20272;-63
2021/11/20 02:16:38;;;;;;;52.70;26.53;;;4.30;99.90;;;;;;4124359;28;20800;-69
2021/11/20 02:18:45;;;;;;;46.30;23.13;;;4.30;99.90;;;;;;4124685;28;21087;-62
2021/11/20 02:20:59;;;;;;;48.90;24.33;;;4.30;99.90;;;;;;4126428;28;20319;-63
2021/11/20 02:23:00;;;;;;;45.13;23.57;;;4.30;99.90;;;;;;4127461;28;20334;-68
2021/11/20 02:25:01;;;;;;;52.03;24.53;;;4.30;99.90;;;;;;4123808;28;20290;-63
2021/11/20 02:27:06;;;;;;;47.47;25.90;;;4.30;99.90;;;;;;4125565;28;20038;-59
2021/11/20 02:29:10;;;;;;;48.63;24.07;;;4.20;99.90;;;;;;4123063;28;20284;-61
2021/11/20 02:31:15;;;;;;;47.60;23.50;;;4.20;99.90;;;;;;4125002;28;20260;-64
2021/11/20 02:33:20;;;;;;;45.93;23.40;;;4.20;99.90;;;;;;4124045;28;20264;-61
2021/11/20 02:35:33;;;;;;;48.87;23.60;;;4.20;99.90;;;;;;4125215;28;20268;-62
2021/11/20 02:37:34;;;;;;;51.77;24.70;;;4.20;99.90;;;;;;4122401;28;20284;-62
2021/11/20 02:39:38;;;;;;;52.60;25.63;;;4.20;99.90;;;;;;4123158;28;20350;-59
2021/11/20 02:41:41;;;;;;;55.57;25.73;;;4.20;99.90;;;;;;4123937;28;20280;-63
2021/11/20 02:43:46;;;;;;;56.80;26.93;;;4.20;99.90;;;;;;4125149;28;20280;-65
2021/11/20 02:45:51;;;;;;;53.20;26.00;;;4.20;99.90;;;;;;4123869;28;20280;-62
2021/11/20 02:47:53;;;;;;;58.27;27.07;;;4.20;99.90;;;;;;4125061;28;20272;-61
2021/11/20 02:49:56;;;;;;;53.37;26.13;;;4.10;99.90;;;;;;4123813;28;21093;-64
2021/11/20 02:52:03;;;;;;;58.80;28.57;;;4.10;99.90;;;;;;4125350;28;20346;-62
2021/11/20 02:54:10;;;;;;;52.47;26.23;;;4.10;99.90;;;;;;4122970;28;20345;-63
2021/11/20 02:56:16;;;;;;;58.37;27.77;;;4.10;99.90;;;;;;4124690;28;20276;-60
2021/11/20 02:58:22;;;;;;;51.17;26.87;;;4.20;99.90;;;;;;4123604;28;20768;-60
2021/11/20 03:00:23;;;;;;;58.80;28.07;;;4.20;99.90;;;;;;4125100;28;20275;-61
2021/11/20 03:02:24;;;;;;;58.17;27.83;;;4.20;99.90;;;;;;4123735;28;20256;-61
2021/11/20 03:04:26;;;;;;;53.03;25.97;;;4.20;99.90;;;;;;4126400;28;20281;-60
2021/11/20 03:06:28;;;;;;;52.03;26.40;;;4.20;99.90;;;;;;4127512;28;20264;-62
2021/11/20 03:08:29;;;;;;;55.07;29.13;;;4.20;99.90;;;;;;4126406;28;20307;-61
2021/11/20 03:10:31;;;;;;;61.23;27.70;;;4.20;99.90;;;;;;4127885;28;20315;-61
2021/11/20 03:12:32;;;;;;;56.77;27.80;;;4.20;99.90;;;;;;4126549;28;20664;-61
2021/11/20 03:14:33;;;;;;;57.30;28.27;;;4.20;99.90;;;;;;4128199;28;20311;-63
2021/11/20 03:16:39;;;;;;;59.10;28.37;;;4.20;99.90;;;;;;4125964;28;20292;-61
2021/11/20 03:18:40;;;;;;;60.73;29.33;;;4.30;99.90;;;;;;4127468;28;20284;-65
2021/11/20 03:20:43;;;;;;;63.10;30.20;;;4.30;99.90;;;;;;4126143;28;20362;-63
2021/11/20 03:22:53;;;;;;;59.83;28.50;;;4.30;99.90;;;;;;4127253;28;20343;-62
2021/11/20 03:24:54;;;;;;;55.17;27.70;;;4.30;99.90;;;;;;4126444;28;20284;-65
2021/11/20 03:26:57;;;;;;;71.90;32.13;;;4.30;99.90;;;;;;4127621;28;20311;-64
2021/11/20 03:28:58;;;;;;;69.73;31.20;;;4.30;99.90;;;;;;4126260;28;20776;-61
2021/11/20 03:31:00;;;;;;;64.93;30.07;;;4.30;99.90;;;;;;4126431;28;20335;-62
2021/11/20 03:33:02;;;;;;;69.43;32.20;;;4.30;99.90;;;;;;4125879;28;20831;-64
2021/11/20 03:35:05;;;;;;;66.27;30.97;;;4.30;99.90;;;;;;4127074;28;20272;-61
2021/11/20 03:37:07;;;;;;;68.90;31.80;;;4.30;99.90;;;;;;4125879;28;20784;-62
2021/11/20 03:39:09;;;;;;;66.33;30.07;;;4.30;99.90;;;;;;4126782;28;20327;-69
2021/11/20 03:41:11;;;;;;;71.63;31.97;;;4.40;99.90;;;;;;4126673;28;20295;-63
2021/11/20 03:43:12;;;;;;;70.67;31.30;;;4.40;99.90;;;;;;4126063;28;20276;-63
2021/11/20 03:45:15;;;;;;;79.53;35.40;;;4.40;99.90;;;;;;4126043;28;20284;-62
2021/11/20 03:47:16;;;;;;;67.00;29.30;;;4.40;99.90;;;;;;4125375;28;20323;-64
2021/11/20 03:49:18;;;;;;;74.17;32.63;;;4.40;99.90;;;;;;4126825;28;20288;-62
2021/11/20 03:51:19;;;;;;;73.23;29.97;;;4.40;99.90;;;;;;4126088;28;20276;-63
2021/11/20 03:53:21;;;;;;;71.27;31.67;;;4.40;99.90;;;;;;4127002;28;20276;-61
2021/11/20 03:55:29;;;;;;;68.43;30.57;;;4.40;99.90;;;;;;4124982;28;20276;-63
2021/11/20 03:57:30;;;;;;;62.47;28.17;;;4.50;99.90;;;;;;4126909;28;20312;-62
2021/11/20 03:59:32;;;;;;;63.53;29.13;;;4.50;99.90;;;;;;4125484;28;20280;-61
2021/11/20 04:01:33;;;;;;;63.67;28.37;;;4.40;99.90;;;;;;4127373;28;20268;-63
2021/11/20 04:03:36;;;;;;;55.17;26.07;;;4.40;99.90;;;;;;4124851;28;20276;-62
2021/11/20 04:05:37;;;;;;;57.93;25.73;;;4.40;99.90;;;;;;4127551;28;20822;-61
2021/11/20 04:07:39;;;;;;;57.57;26.83;;;4.40;99.90;;;;;;4125799;28;20755;-63
2021/11/20 04:09:40;;;;;;;60.57;27.80;;;4.40;99.90;;;;;;4127079;28;20256;-62
2021/11/20 04:11:45;;;;;;;55.50;24.60;;;4.30;99.90;;;;;;4125773;28;20265;-62
2021/11/20 04:13:47;;;;;;;61.73;28.80;;;4.30;99.90;;;;;;4126584;28;20337;-61
2021/11/20 04:15:50;;;;;;;59.67;26.97;;;4.30;99.90;;;;;;4124122;28;20326;-63
2021/11/20 04:17:51;;;;;;;49.67;23.73;;;4.30;99.90;;;;;;4126069;28;20296;-63
2021/11/20 04:19:52;;;;;;;52.67;24.03;;;4.30;99.90;;;;;;4126150;28;20851;-62
2021/11/20 04:21:54;;;;;;;52.43;25.40;;;4.30;99.90;;;;;;4125810;28;20338;-64
2021/11/20 04:23:57;;;;;;;51.40;25.07;;;4.30;99.90;;;;;;4126506;28;20350;-62
2021/11/20 04:25:58;;;;;;;47.77;23.57;;;4.40;99.90;;;;;;4125185;28;20268;-62
2021/11/20 04:28:00;;;;;;;48.53;24.27;;;4.40;99.90;;;;;;4126876;28;20923;-62
2021/11/20 04:30:01;;;;;;;46.93;22.17;;;4.40;99.90;;;;;;4125208;28;20268;-62
2021/11/20 04:32:02;;;;;;;44.77;22.93;;;4.40;99.90;;;;;;4125608;28;20756;-60
2021/11/20 04:34:04;;;;;;;44.00;20.70;;;4.40;99.90;;;;;;4125962;28;20268;-64
2021/11/20 04:36:06;;;;;;;43.70;22.03;;;4.40;99.90;;;;;;4126263;28;20648;-60
2021/11/20 04:38:08;;;;;;;42.67;19.80;;;4.40;99.90;;;;;;4124572;28;20334;-61
2021/11/20 04:40:10;;;;;;;43.60;20.37;;;4.40;99.90;;;;;;4126373;28;20330;-63
2021/11/20 04:42:11;;;;;;;37.07;18.60;;;4.50;99.90;;;;;;4125467;28;20264;-62
2021/11/20 04:44:12;;;;;;;45.37;21.07;;;4.50;99.90;;;;;;4125614;28;20271;-62
2021/11/20 04:46:15;;;;;;;40.30;19.80;;;4.50;99.90;;;;;;4125300;28;20358;-62
2021/11/20 04:48:16;;;;;;;36.73;19.60;;;4.50;99.90;;;;;;4125584;28;20672;-60
2021/11/20 04:50:20;;;;;;;42.20;20.27;;;4.50;99.90;;;;;;4125732;28;20264;-62
2021/11/20 04:52:21;;;;;;;43.10;20.77;;;4.50;99.90;;;;;;4125404;28;20272;-62
2021/11/20 04:54:22;;;;;;;42.87;21.30;;;4.50;99.90;;;;;;4125414;28;20272;-62
2021/11/20 04:56:26;;;;;;;41.60;21.20;;;4.50;99.90;;;;;;4124313;28;20771;-61
2021/11/20 04:58:28;;;;;;;43.77;22.30;;;4.50;99.90;;;;;;4125880;28;20720;-60
2021/11/20 05:00:39;;;;;;;51.67;24.07;;;4.60;99.90;;;;;;4124660;28;20338;-62
2021/11/20 05:02:40;;;;;;;48.90;24.17;;;4.60;99.90;;;;;;4124895;28;20767;-62
2021/11/20 05:04:41;;;;;;;44.03;21.30;;;4.60;99.90;;;;;;4125295;28;20337;-63
2021/11/20 05:06:42;;;;;;;43.20;21.87;;;4.60;99.90;;;;;;4125998;28;20326;-63
2021/11/20 05:08:44;;;;;;;43.50;22.67;;;4.60;99.90;;;;;;4124229;28;20288;-64
2021/11/20 05:10:45;;;;;;;43.33;21.87;;;4.60;99.90;;;;;;4125691;28;20350;-61
2021/11/20 05:12:46;;;;;;;42.87;21.87;;;4.60;99.90;;;;;;4124691;28;20276;-64
2021/11/20 05:14:47;;;;;;;44.97;20.57;;;4.60;99.90;;;;;;4124054;28;20272;-63
2021/11/20 05:16:48;;;;;;;45.87;22.47;;;4.60;99.90;;;;;;4124331;28;20292;-64
2021/11/20 05:18:50;;;;;;;48.23;23.40;;;4.70;99.90;;;;;;4125046;28;20757;-63
2021/11/20 05:20:54;;;;;;;48.27;24.03;;;4.60;99.90;;;;;;4124616;28;20327;-62
2021/11/20 05:22:56;;;;;;;40.37;21.33;;;4.70;99.90;;;;;;4124331;28;20334;-62
2021/11/20 05:24:57;;;;;;;42.77;22.73;;;4.70;99.90;;;;;;4125016;28;20279;-64
2021/11/20 05:27:00;;;;;;;42.53;22.47;;;4.70;99.90;;;;;;4124044;28;20676;-62
2021/11/20 05:29:30;;;;;;;46.13;23.80;;;4.70;99.90;;;;;;4125271;28;20306;-63
2021/11/20 05:31:33;;;;;;;42.83;21.40;;;4.70;99.90;;;;;;4124717;28;20295;-63
2021/11/20 05:33:42;;;;;;;41.60;20.43;;;4.70;99.90;;;;;;4124484;28;20264;-63
2021/11/20 05:35:43;;;;;;;42.67;20.63;;;4.70;99.90;;;;;;4124349;28;20296;-64
2021/11/20 05:37:45;;;;;;;39.70;20.97;;;4.70;99.90;;;;;;4124079;28;20351;-62
2021/11/20 05:39:46;;;;;;;44.27;20.53;;;4.70;99.90;;;;;;4123438;28;20272;-63
2021/11/20 05:41:48;;;;;;;42.20;22.00;;;4.70;99.90;;;;;;4124861;28;20326;-62
2021/11/20 05:43:50;;;;;;;49.90;24.40;;;4.70;99.90;;;;;;4123723;28;20268;-62
2021/11/20 05:45:55;;;;;;;47.97;23.80;;;4.70;99.90;;;;;;4125646;28;20260;-65
2021/11/20 05:47:56;;;;;;;48.03;22.40;;;4.70;99.90;;;;;;4123681;28;20271;-62
2021/11/20 05:49:57;;;;;;;58.73;29.73;;;4.70;99.90;;;;;;4124679;28;20264;-65
2021/11/20 05:51:59;;;;;;;82.23;38.87;;;4.60;99.90;;;;;;4123273;28;21161;-63
2021/11/20 05:54:00;;;;;;;83.33;41.57;;;4.60;99.90;;;;;;4123949;28;20669;-64
2021/11/20 05:56:02;;;;;;;93.50;44.27;;;4.60;99.90;;;;;;4123036;28;20272;-62
2021/11/20 05:58:03;;;;;;;78.17;39.30;;;4.60;99.90;;;;;;4124619;28;20362;-62
2021/11/20 06:00:10;;;;;;;79.03;39.13;;;4.70;99.90;;;;;;4122580;28;20342;-63
2021/11/20 06:02:11;;;;;;;76.50;37.50;;;4.70;99.90;;;;;;4124831;28;20680;-62
2021/11/20 06:04:14;;;;;;;76.53;37.50;;;4.70;99.90;;;;;;4123680;28;20806;-65
2021/11/20 06:06:15;;;;;;;67.63;32.87;;;4.70;99.90;;;;;;4123548;28;20346;-62
2021/11/20 06:08:17;;;;;;;65.20;32.80;;;4.70;99.90;;;;;;4123710;28;20260;-63
2021/11/20 06:10:18;;;;;;;67.07;32.00;;;4.80;99.90;;;;;;4123311;28;20936;-67
2021/11/20 06:12:19;;;;;;;70.90;32.60;;;4.80;99.90;;;;;;4124466;28;20077;-63
2021/11/20 06:14:21;;;;;;;67.23;32.10;;;4.80;99.90;;;;;;4124189;28;20031;-62
2021/11/20 06:16:22;;;;;;;65.30;33.20;;;4.80;99.90;;;;;;4124670;28;20284;-61
2021/11/20 06:18:24;;;;;;;68.20;34.63;;;4.80;99.90;;;;;;4123573;28;20342;-63
2021/11/20 06:20:26;;;;;;;69.67;34.60;;;4.80;99.90;;;;;;4124149;28;20379;-63
2021/11/20 06:22:28;;;;;;;66.90;33.17;;;4.90;99.90;;;;;;4123336;28;20323;-64
2021/11/20 06:24:29;;;;;;;64.90;33.93;;;4.90;99.90;;;;;;4124237;28;20345;-61
2021/11/20 06:26:31;;;;;;;68.97;33.80;;;4.90;99.90;;;;;;4123504;28;20675;-62
2021/11/20 06:28:32;;;;;;;70.47;36.27;;;4.90;99.90;;;;;;4123986;28;20334;-63
2021/11/20 06:30:34;;;;;;;69.77;33.30;;;4.90;99.90;;;;;;4123115;28;20466;-64
2021/11/20 06:32:36;;;;;;;62.60;31.33;;;4.90;99.90;;;;;;4123802;28;20042;-62
2021/11/20 06:34:37;;;;;;;73.37;34.90;;;4.90;99.90;;;;;;4122788;28;20311;-63
2021/11/20 06:36:38;;;;;;;77.03;34.60;;;5.00;99.90;;;;;;4124293;28;20046;-65
2021/11/20 06:38:40;;;;;;;64.20;31.17;;;5.00;99.90;;;;;;4124774;28;20280;-66
2021/11/20 06:40:44;;;;;;;62.17;32.03;;;5.00;99.90;;;;;;4127231;28;20035;-66
2021/11/20 06:42:46;;;;;;;66.23;31.57;;;5.00;99.90;;;;;;4127315;28;20319;-63
2021/11/20 06:44:47;;;;;;;67.43;31.50;;;5.10;99.90;;;;;;4127016;28;20334;-63
2021/11/20 06:46:48;;;;;;;64.57;32.53;;;5.10;99.90;;;;;;4127532;28;20100;-63
2021/11/20 06:48:50;;;;;;;64.50;32.30;;;5.10;99.90;;;;;;4126607;28;20097;-61
2021/11/20 06:50:54;;;;;;;58.43;30.03;;;5.10;99.90;;;;;;4127119;28;20081;-58
2021/11/20 06:52:55;;;;;;;56.17;29.40;;;5.10;99.90;;;;;;4126693;28;20065;-62
2021/11/20 06:54:56;;;;;;;56.13;26.80;;;5.10;99.90;;;;;;4127658;28;20302;-64
2021/11/20 06:57:05;;;;;;;67.77;33.80;;;5.10;99.90;;;;;;4124155;28;20046;-64
2021/11/20 07:01:13;;;;;;;48.70;25.77;;;5.00;99.90;;;;;;4126421;28;20330;-63
2021/11/20 07:03:38;;;;;;;53.27;24.67;;;5.00;99.90;;;;;;4128035;28;20092;-64
2021/11/20 07:05:47;;;;;;;48.17;24.67;;;5.00;99.90;;;;;;4126029;28;20038;-64
2021/11/20 07:07:48;;;;;;;56.77;27.73;;;5.00;99.90;;;;;;4127465;28;20272;-61
2021/11/20 07:09:51;;;;;;;59.73;27.57;;;5.10;99.90;;;;;;4125683;28;20759;-66
2021/11/20 07:11:52;;;;;;;52.10;25.83;;;5.10;99.90;;;;;;4127216;28;20113;-61
2021/11/20 07:13:54;;;;;;;52.30;25.40;;;5.10;99.90;;;;;;4125832;28;20034;-64
2021/11/20 07:15:55;;;;;;;52.50;25.93;;;5.10;99.90;;;;;;4127599;28;20334;-62
2021/11/20 07:17:56;;;;;;;55.90;27.07;;;5.20;99.90;;;;;;4126047;28;20161;-62
2021/11/20 07:19:58;;;;;;;64.43;28.17;;;5.20;99.90;;;;;;4126826;28;20057;-62
2021/11/20 07:21:59;;;;;;;56.57;27.17;;;5.20;99.90;;;;;;4126018;28;20046;-62
2021/11/20 07:24:04;;;;;;;57.80;27.17;;;5.20;99.90;;;;;;4125682;28;20047;-66
2021/11/20 07:26:07;;;;;;;54.57;24.97;;;5.30;99.90;;;;;;4126579;28;20557;-62
2021/11/20 07:28:10;;;;;;;55.67;26.50;;;5.20;99.90;;;;;;4125899;28;20038;-64
2021/11/20 07:30:14;;;;;;;59.37;27.93;;;5.30;99.90;;;;;;4126379;28;20046;-62
2021/11/20 07:32:15;;;;;;;59.67;30.17;;;5.30;99.90;;;;;;4125802;28;20610;-65
2021/11/20 07:34:16;;;;;;;58.23;27.30;;;5.40;99.90;;;;;;4126829;28;20042;-66
2021/11/20 07:36:18;;;;;;;51.80;26.27;;;5.40;99.90;;;;;;4125526;28;20106;-64
2021/11/20 07:38:24;;;;;;;60.73;29.50;;;5.50;99.90;;;;;;4126554;28;20178;-66
2021/11/20 07:40:28;;;;;;;65.23;29.80;;;5.50;99.90;;;;;;4124870;28;20283;-63
2021/11/20 07:42:29;;;;;;;64.33;32.67;;;5.50;99.90;;;;;;4126937;28;20093;-68
2021/11/20 07:44:31;;;;;;;59.37;30.80;;;5.50;99.90;;;;;;4125924;28;20042;-66
2021/11/20 07:46:33;;;;;;;62.40;31.83;;;5.50;99.90;;;;;;4127101;28;20034;-63
2021/11/20 07:48:37;;;;;;;61.40;31.37;;;5.40;99.90;;;;;;4125176;28;20046;-65
2021/11/20 07:50:39;;;;;;;54.03;28.23;;;5.40;99.90;;;;;;4126161;28;20038;-66
2021/11/20 07:52:41;;;;;;;51.70;26.67;;;5.40;99.90;;;;;;4124761;28;20097;-62
2021/11/20 07:54:42;;;;;;;53.90;28.00;;;5.40;99.90;;;;;;4126185;28;20085;-65
2021/11/20 07:56:43;;;;;;;50.27;26.13;;;5.30;99.90;;;;;;4122291;28;20093;-63
2021/11/20 07:58:46;;;;;;;49.97;25.40;;;5.30;99.90;;;;;;4124692;28;20042;-63
2021/11/20 08:00:47;;;;;;;52.07;25.80;;;5.30;99.90;;;;;;4125031;28;20093;-68
2021/11/20 08:02:48;;;;;;;53.10;27.50;;;5.30;99.90;;;;;;4125060;28;20081;-65
2021/11/20 08:04:49;;;;;;;51.00;25.70;;;5.30;99.90;;;;;;4125237;28;20046;-64
2021/11/20 08:06:50;;;;;;;46.87;25.83;;;5.30;99.90;;;;;;4125132;28;20030;-63
2021/11/20 08:08:52;;;;;;;55.87;28.57;;;5.30;99.90;;;;;;4125137;28;20030;-63
2021/11/20 08:10:53;;;;;;;56.97;28.03;;;5.40;99.90;;;;;;4123863;28;20081;-61
2021/11/20 08:12:57;;;;;;;59.47;28.47;;;5.40;99.90;;;;;;4125841;28;20065;-61
2021/11/20 08:14:58;;;;;;;59.80;29.10;;;5.40;99.90;;;;;;4125335;28;20061;-67
2021/11/20 08:16:59;;;;;;;95.50;45.07;;;5.50;99.90;;;;;;4126570;28;20486;-63
2021/11/20 08:19:00;;;;;;;55.07;29.77;;;5.50;99.90;;;;;;4123891;28;20498;-62
2021/11/20 08:21:04;;;;;;;62.87;29.03;;;5.50;99.90;;;;;;4126160;28;20093;-61
2021/11/20 08:23:09;;;;;;;56.27;28.27;;;5.50;99.90;;;;;;4124515;28;20496;-66
2021/11/20 08:25:14;;;;;;;52.27;27.53;;;5.60;99.90;;;;;;4125903;28;20057;-62
2021/11/20 08:27:16;;;;;;;56.90;27.17;;;5.60;99.90;;;;;;4124232;28;20982;-63
2021/11/20 08:29:19;;;;;;;51.50;27.87;;;5.70;99.90;;;;;;4125995;28;20042;-62
2021/11/20 08:31:20;;;;;;;57.50;27.47;;;5.70;99.90;;;;;;4124017;28;20067;-65
2021/11/20 08:33:22;;;;;;;56.17;29.07;;;5.80;99.90;;;;;;4122905;28;20046;-66
2021/11/20 08:35:24;;;;;;;56.30;27.73;;;5.90;99.90;;;;;;4124097;28;20485;-62
2021/11/20 08:37:26;;;;;;;53.00;28.03;;;5.90;99.90;;;;;;4124930;28;20529;-62
2021/11/20 08:39:30;;;;;;;48.37;26.87;;;6.00;99.90;;;;;;4125622;28;20379;-65
2021/11/20 08:41:31;;;;;;;51.23;27.03;;;6.00;99.90;;;;;;4124157;28;20124;-62
2021/11/20 08:43:33;;;;;;;45.07;25.27;;;6.10;99.90;;;;;;4125494;28;20320;-63
2021/11/20 08:45:37;;;;;;;53.87;26.73;;;6.10;99.90;;;;;;4125295;28;20088;-62
2021/11/20 08:47:38;;;;;;;55.37;28.40;;;6.20;99.90;;;;;;4124330;28;20116;-62
2021/11/20 08:49:40;;;;;;;55.90;28.97;;;6.20;99.90;;;;;;4124255;28;20734;-64
2021/11/20 08:51:43;;;;;;;59.27;30.00;;;6.30;99.90;;;;;;4125369;28;20092;-62
2021/11/20 08:53:44;;;;;;;59.63;30.73;;;6.40;99.90;;;;;;4123834;28;20034;-62
2021/11/20 08:55:46;;;;;;;58.23;30.33;;;6.40;99.90;;;;;;4124528;28;20042;-61
2021/11/20 08:57:47;;;;;;;57.53;29.90;;;6.50;99.90;;;;;;4121874;28;20562;-62
2021/11/20 08:59:50;;;;;;;58.47;30.53;;;6.50;99.90;;;;;;4118466;28;20042;-66
2021/11/20 09:02:11;;;;;;;60.73;30.53;;;6.50;99.90;;;;;;4123655;28;20042;-62
2021/11/20 09:04:15;;;;;;;59.63;28.90;;;6.50;99.90;;;;;;4125226;28;20046;-63
2021/11/20 09:06:53;;;;;;;53.93;29.53;;;6.60;99.90;;;;;;4124158;28;20034;-66
2021/11/20 09:08:57;;;;;;;52.77;29.17;;;6.60;99.90;;;;;;4126009;28;20088;-63
2021/11/20 09:11:08;;;;;;;61.17;32.93;;;6.70;99.90;;;;;;4124214;28;20442;-65
2021/11/20 09:13:17;;;;;;;;;;;6.70;99.90;;;;;;4126277;28;20529;-65
2021/11/20 09:15:21;;;;;;;47.30;25.70;;;6.80;99.90;;;;;;4124406;28;20365;-63
2021/11/20 09:17:24;;;;;;;57.87;27.87;;;6.80;99.90;;;;;;4123382;28;20105;-63
2021/11/20 09:19:28;;;;;;;47.73;23.77;;;6.90;99.90;;;;;;4124432;28;20419;-64
2021/11/20 09:21:29;;;;;;;35.10;20.30;;;6.90;99.90;;;;;;4124896;28;20031;-64
2021/11/20 09:23:31;;;;;;;33.43;18.53;;;6.90;99.90;;;;;;4123099;28;20054;-63
2021/11/20 09:25:33;;;;;;;31.93;18.23;;;6.90;99.90;;;;;;4125254;28;20455;-64
2021/11/20 09:27:36;;;;;;;30.27;17.47;;;7.00;99.90;;;;;;4123280;28;20911;-64
2021/11/20 09:29:38;;;;;;;29.83;17.57;;;7.00;99.90;;;;;;4124286;28;20078;-64
2021/11/20 09:31:41;;;;;;;33.90;19.40;;;7.00;99.90;;;;;;4124165;28;20415;-64
2021/11/20 09:33:44;;;;;;;30.73;18.80;;;7.10;99.90;;;;;;4123534;28;20116;-65
2021/11/20 09:35:47;;;;;;;35.40;21.63;;;7.10;99.90;;;;;;4123500;28;20556;-64
2021/11/20 09:37:48;;;;;;;35.13;20.37;;;7.10;99.90;;;;;;4122442;28;20049;-62
2021/11/20 09:39:49;;;;;;;31.63;20.60;;;7.10;99.90;;;;;;4124575;28;20034;-63
2021/11/20 09:42:27;;;;;;;32.60;21.33;;;7.10;99.90;;;;;;4123308;28;20088;-65
2021/11/20 09:44:35;;;;;;;34.80;20.37;;;7.10;99.90;;;;;;4124936;28;20077;-64
2021/11/20 09:46:45;;;;;;;30.73;19.23;;;7.20;99.90;;;;;;4124093;28;20092;-66
2021/11/20 09:48:53;;;;;;;32.57;19.53;;;7.20;99.90;;;;;;4124280;28;20022;-65
2021/11/20 09:50:54;;;;;;;29.97;17.77;;;7.20;99.90;;;;;;4124275;28;20089;-66
2021/11/20 09:52:56;;;;;;;27.70;17.27;;;7.20;99.90;;;;;;4124275;28;20034;-64
2021/11/20 09:54:58;;;;;;;32.27;17.87;;;7.20;99.90;;;;;;4123643;28;20042;-64
2021/11/20 09:57:09;;;;;;;27.77;15.57;;;7.20;99.90;;;;;;4123630;28;20034;-64
2021/11/20 09:59:25;;;;;;;26.07;15.47;;;7.20;99.90;;;;;;4123152;28;20096;-64
2021/11/20 10:01:41;;;;;;;24.67;15.07;;;7.20;99.90;;;;;;4124285;28;20873;-65
2021/11/20 10:03:45;;;;;;;26.00;15.90;;;7.20;99.90;;;;;;4123302;28;20084;-65
2021/11/20 10:06:17;;;;;;;28.87;16.33;;;7.20;99.90;;;;;;4123817;28;20116;-64
2021/11/20 10:08:25;;;;;;;26.23;15.73;;;7.20;99.90;;;;;;4106677;28;20042;-63
2021/11/20 10:10:47;;;;;;;27.73;16.73;;;7.30;99.90;;;;;;4124074;28;20080;-64
2021/11/20 10:13:11;;;;;;;31.93;17.80;;;7.30;99.90;;;;;;4123724;28;20030;-64
2021/11/20 10:15:27;;;;;;;28.23;16.63;;;7.30;99.90;;;;;;4122807;28;20035;-64
2021/11/20 10:17:49;;;;;;;25.00;15.13;;;7.40;99.90;;;;;;4124033;28;20097;-64
2021/11/20 10:19:57;;;;;;;25.80;15.30;;;7.40;99.90;;;;;;4122770;28;20042;-64
2021/11/20 10:22:24;;;;;;;24.07;14.50;;;7.40;99.90;;;;;;4124260;28;20042;-64
2021/11/20 10:24:48;;;;;;;25.07;14.73;;;7.40;99.90;;;;;;4123767;28;20116;-66
2021/11/20 10:27:04;;;;;;;26.73;14.13;;;7.40;99.90;;;;;;4124658;28;20073;-65
2021/11/20 10:29:24;;;;;;;26.80;14.87;;;7.40;99.90;;;;;;4123551;28;20038;-65
2021/11/20 10:31:39;;;;;;;30.93;16.93;;;7.50;99.90;;;;;;4124595;28;20479;-64
2021/11/20 10:34:08;;;;;;;39.40;21.20;;;7.50;99.90;;;;;;4123048;28;20327;-64
2021/11/20 10:36:13;;;;;;;51.77;27.40;;;7.50;99.90;;;;;;4124141;28;20089;-63
2021/11/20 10:38:20;;;;;;;46.87;24.60;;;7.60;99.90;;;;;;4122537;28;20050;-63
2021/11/20 10:40:47;;;;;;;68.80;35.10;;;7.60;99.90;;;;;;4123625;28;20031;-64
2021/11/20 10:43:21;;;;;;;62.47;28.63;;;7.60;99.90;;;;;;4122569;28;20101;-63
2021/11/20 10:45:47;;;;;;;71.83;35.77;;;7.60;99.90;;;;;;4110018;28;20058;-65
2021/11/20 10:47:58;;;;;;;60.93;30.73;;;7.70;99.90;;;;;;4123548;28;20034;-63